Flin Flon, Flin Flon Airport (CYFO)

NameFlin Flon Airport
CityFlin Flon
CountryCanada
ICAOCYFO
IATAYFO
Altitude304 m
CoordinatesGoogle Map
Live Air TrafficLiveATC.net
METARCYFO 231200Z 29005KT 15SM FEW012 SCT045 BKN110 14/13 A2999 RMK SF2SC1AC2 PRESRR SLP161 DENSITY ALT 1100FT
2019-08-23 12:00:00 Wind: West (290°) 2.57 m/s - Visibility: 24140.1 m - Temperature: 14 °C - Dew point: 13 °C - Humidity: 93.8% - Pressure: 1015.58 hPa

Sorry, no flights used the airport in this database.